createdAt,value
2018-08-04T00:00:36.492Z,80.50
2018-08-04T00:03:04.039Z,81.00
2018-08-04T00:05:31.876Z,81.20
2018-08-04T00:07:59.439Z,80.80
2018-08-04T00:10:27.655Z,81.40
2018-08-04T00:12:55.711Z,81.40
2018-08-04T00:15:23.556Z,82.70
2018-08-04T00:17:51.111Z,81.60
2018-08-04T00:20:19.394Z,81.40
2018-08-04T00:22:47.313Z,81.60
2018-08-04T00:25:14.839Z,82.90
2018-08-04T00:30:12.045Z,81.40
2018-08-04T00:32:39.703Z,81.70
2018-08-04T00:35:08.366Z,81.30
2018-08-04T00:37:36.828Z,82.00
2018-08-04T00:40:05.884Z,82.50
2018-08-04T00:42:33.758Z,82.90
2018-08-04T00:45:01.588Z,83.20
2018-08-04T00:47:29.100Z,81.90
2018-08-04T00:49:56.975Z,81.70
2018-08-04T00:52:25.191Z,81.50
2018-08-04T00:54:52.815Z,81.70
2018-08-04T00:57:20.332Z,81.60
2018-08-04T00:59:47.870Z,82.70
2018-08-04T01:02:15.404Z,81.60
2018-08-04T01:04:43.543Z,81.90
2018-08-04T01:09:39.304Z,82.60
2018-08-04T01:12:06.848Z,83.20
2018-08-04T01:14:34.960Z,82.50
2018-08-04T01:17:02.515Z,82.30
2018-08-04T01:19:30.390Z,82.70
2018-08-04T01:21:58.274Z,82.70
2018-08-04T01:24:26.604Z,82.10
2018-08-04T01:26:54.252Z,82.30
2018-08-04T01:29:21.756Z,82.90
2018-08-04T01:31:49.312Z,82.90
2018-08-04T01:34:17.340Z,82.70
2018-08-04T01:36:44.852Z,82.30
2018-08-04T01:39:12.384Z,82.70
2018-08-04T01:41:40.415Z,82.50
2018-08-04T01:44:08.356Z,83.40
2018-08-04T01:46:35.856Z,82.90
2018-08-04T01:49:03.740Z,83.00
2018-08-04T01:51:31.756Z,83.10
2018-08-04T01:53:59.344Z,82.70
2018-08-04T01:56:26.852Z,82.90
2018-08-04T01:58:54.390Z,83.20
2018-08-04T02:01:22.624Z,83.00
2018-08-04T02:03:51.212Z,82.90
2018-08-04T02:08:46.308Z,82.90
2018-08-04T02:11:13.854Z,83.90
2018-08-04T02:13:41.882Z,84.10
2018-08-04T02:16:10.060Z,83.20
2018-08-04T02:18:37.580Z,83.30
2018-08-04T02:21:06.004Z,83.30
2018-08-04T02:23:33.892Z,83.70
2018-08-04T02:26:01.524Z,83.40
2018-08-04T02:28:30.341Z,83.80
2018-08-04T02:30:57.960Z,84.40
2018-08-04T02:33:26.292Z,83.80
2018-08-04T02:35:53.796Z,83.60
2018-08-04T02:38:21.660Z,84.10
2018-08-04T02:40:49.794Z,84.10
2018-08-04T02:43:18.088Z,84.20
2018-08-04T02:45:45.928Z,84.60
2018-08-04T02:48:14.028Z,84.50
2018-08-04T02:50:41.527Z,84.60
2018-08-04T02:53:09.059Z,85.60
2018-08-04T02:55:36.631Z,84.50
2018-08-04T02:58:04.371Z,84.00
2018-08-04T03:00:32.583Z,84.80
2018-08-04T03:03:00.575Z,84.60
2018-08-04T03:05:28.416Z,85.10
2018-08-04T03:07:55.935Z,85.50
2018-08-04T03:10:23.439Z,84.80
2018-08-04T03:12:52.020Z,84.70
2018-08-04T03:15:19.993Z,84.80
2018-08-04T03:22:44.295Z,84.50
2018-08-04T03:25:12.487Z,86.00
2018-08-04T03:27:40.345Z,85.60
2018-08-04T03:30:07.941Z,85.30
2018-08-04T03:32:35.756Z,85.70
2018-08-04T03:35:04.213Z,85.50
2018-08-04T03:37:31.735Z,86.00
2018-08-04T03:40:00.660Z,85.80
2018-08-04T03:42:28.548Z,85.10
2018-08-04T03:44:56.815Z,85.00
2018-08-04T03:47:24.343Z,85.10
2018-08-04T03:49:52.164Z,85.60
2018-08-04T03:52:19.675Z,84.70
2018-08-04T03:54:47.199Z,84.50
2018-08-04T03:57:14.809Z,85.10
2018-08-04T03:59:42.747Z,84.60
2018-08-04T04:02:11.300Z,84.40
2018-08-04T04:04:38.822Z,84.50
2018-08-04T04:07:06.726Z,84.30
2018-08-04T04:09:34.334Z,84.50
2018-08-04T04:12:02.427Z,85.40
2018-08-04T04:14:30.271Z,84.40
2018-08-04T04:16:58.331Z,84.80
2018-08-04T04:19:26.230Z,84.90
2018-08-04T04:21:54.303Z,85.20
2018-08-04T04:24:21.802Z,84.60
2018-08-04T04:26:49.301Z,84.70
2018-08-04T04:29:16.824Z,84.60
2018-08-04T04:31:44.372Z,84.60
2018-08-04T04:34:12.323Z,84.50
2018-08-04T04:36:39.833Z,84.60
2018-08-04T04:39:09.276Z,85.40
2018-08-04T04:41:37.335Z,85.00
2018-08-04T04:44:05.725Z,85.10
2018-08-04T04:46:37.799Z,84.80
2018-08-04T04:49:06.940Z,84.50
2018-08-04T04:51:35.268Z,84.40
2018-08-04T04:56:31.096Z,84.00
2018-08-04T04:58:58.600Z,83.70
2018-08-04T05:01:26.136Z,83.50
2018-08-04T05:06:21.180Z,83.30
2018-08-04T05:08:49.025Z,82.80
2018-08-04T05:11:16.528Z,82.30
2018-08-04T05:13:44.888Z,81.80
2018-08-04T05:18:40.184Z,81.90
2018-08-04T05:21:08.024Z,82.20
2018-08-04T05:23:36.364Z,81.80
2018-08-04T05:28:31.444Z,81.30
2018-08-04T05:30:59.327Z,80.60
2018-08-04T05:33:27.880Z,80.40
2018-08-04T05:35:55.753Z,80.10
2018-08-04T05:38:23.248Z,80.20
2018-08-04T05:40:51.365Z,79.70
2018-08-04T05:43:19.396Z,79.60
2018-08-04T05:45:47.416Z,79.10
2018-08-04T05:48:15.500Z,79.20
2018-08-04T05:50:43.008Z,78.20
2018-08-04T05:53:11.168Z,78.30
2018-08-04T05:55:38.724Z,78.30
2018-08-04T05:58:06.693Z,78.00
2018-08-04T06:00:34.584Z,77.70
2018-08-04T06:03:02.083Z,77.30
2018-08-04T06:05:29.607Z,77.10
2018-08-04T06:07:57.679Z,76.50
2018-08-04T06:10:25.647Z,77.10
2018-08-04T06:12:53.692Z,76.90
2018-08-04T06:15:21.610Z,76.10
2018-08-04T06:17:49.120Z,76.20
2018-08-04T06:20:17.159Z,76.30
2018-08-04T06:22:45.125Z,75.30
2018-08-04T06:25:12.632Z,76.00
2018-08-04T06:27:40.128Z,75.70
2018-08-04T06:30:09.368Z,75.10
2018-08-04T06:32:36.860Z,75.10
2018-08-04T06:35:04.910Z,75.00
2018-08-04T06:37:33.124Z,74.80
2018-08-04T06:40:01.509Z,74.30
2018-08-04T06:42:29.445Z,74.20
2018-08-04T06:44:57.360Z,73.30
2018-08-04T06:47:24.860Z,73.30
2018-08-04T06:49:52.344Z,73.70
2018-08-04T06:52:19.970Z,73.90
2018-08-04T06:54:47.511Z,73.30
2018-08-04T06:57:15.124Z,72.60
2018-08-04T06:59:42.704Z,71.90
2018-08-04T07:02:10.240Z,72.40
2018-08-04T07:04:39.412Z,72.20
2018-08-04T07:07:07.812Z,72.60
2018-08-04T07:09:35.717Z,71.80
2018-08-04T07:12:03.639Z,70.60
2018-08-04T07:14:31.828Z,71.00
2018-08-04T07:21:55.352Z,71.10
2018-08-04T07:24:22.879Z,70.70
2018-08-04T07:26:50.443Z,70.50
2018-08-04T07:29:17.995Z,70.20
2018-08-04T07:31:45.517Z,69.30
2018-08-04T07:34:13.413Z,69.10
2018-08-04T07:36:42.244Z,69.00
2018-08-04T07:39:10.935Z,68.30
2018-08-04T07:41:39.244Z,68.00
2018-08-04T07:44:07.097Z,66.80
2018-08-04T07:49:03.115Z,67.20
2018-08-04T07:51:30.886Z,66.30
2018-08-04T07:53:58.431Z,67.10
2018-08-04T07:56:26.065Z,66.20
2018-08-04T07:58:53.625Z,67.00
2018-08-04T08:01:21.796Z,65.80
2018-08-04T08:03:49.298Z,65.60
2018-08-04T08:06:17.261Z,65.20
2018-08-04T08:08:45.098Z,65.10
2018-08-04T08:13:40.556Z,64.60
2018-08-04T08:16:08.477Z,63.70
2018-08-04T08:18:35.991Z,65.00
2018-08-04T08:21:04.130Z,63.80
2018-08-04T08:23:32.108Z,63.80
2018-08-04T08:26:05.149Z,63.80
2018-08-04T08:28:33.012Z,63.40
2018-08-04T08:31:00.992Z,62.70
2018-08-04T08:33:29.024Z,63.30
2018-08-04T08:35:56.988Z,61.70
2018-08-04T08:38:24.572Z,62.20
2018-08-04T08:40:52.132Z,61.70
2018-08-04T08:43:20.300Z,59.90
2018-08-04T08:48:15.625Z,60.40
2018-08-04T08:50:43.592Z,59.20
2018-08-04T08:53:11.199Z,59.30
2018-08-04T08:55:39.168Z,59.30
2018-08-04T08:58:06.699Z,58.70
2018-08-04T09:00:34.724Z,58.50
2018-08-04T09:03:02.829Z,58.40
2018-08-04T09:05:30.998Z,58.70
2018-08-04T09:07:59.178Z,57.90
2018-08-04T09:10:27.646Z,58.00
2018-08-04T09:12:55.615Z,57.90
2018-08-04T09:15:23.564Z,57.50
2018-08-04T09:17:51.167Z,55.30
2018-08-04T09:20:19.191Z,56.40
2018-08-04T09:35:10.521Z,54.00
2018-08-04T09:37:38.076Z,55.10
2018-08-04T09:42:35.095Z,52.00
2018-08-04T09:45:03.564Z,52.40
2018-08-04T09:47:31.084Z,48.90
2018-08-04T09:49:58.704Z,45.00
2018-08-04T09:52:26.288Z,45.60
2018-08-04T09:54:54.199Z,45.80
2018-08-04T09:59:50.738Z,45.60
2018-08-04T10:02:24.030Z,45.50
2018-08-04T10:04:52.774Z,44.10
2018-08-04T10:07:21.128Z,43.70
2018-08-04T10:12:16.495Z,42.90
2018-08-04T10:14:44.384Z,44.40
2018-08-04T10:17:11.930Z,44.00
2018-08-04T10:19:39.847Z,42.50
2018-08-04T10:22:08.890Z,41.00
2018-08-04T10:24:36.384Z,39.70
2018-08-04T10:27:04.405Z,38.70
2018-08-04T10:32:00.054Z,40.80
2018-08-04T10:34:27.965Z,37.90
2018-08-04T10:36:55.493Z,38.90
2018-08-04T10:39:23.055Z,39.20
2018-08-04T10:41:51.047Z,39.20
2018-08-04T10:44:19.252Z,38.70
2018-08-04T10:46:46.783Z,38.50
2018-08-04T10:49:14.301Z,39.10
2018-08-04T10:51:41.944Z,38.40
2018-08-04T10:54:10.276Z,36.90
2018-08-04T10:59:06.040Z,38.80
2018-08-04T11:01:34.090Z,39.70
2018-08-04T11:04:01.605Z,37.20
2018-08-04T11:06:29.832Z,36.30
2018-08-04T11:08:57.356Z,37.70
2018-08-04T11:11:24.866Z,37.10
2018-08-04T11:13:52.978Z,37.80
2018-08-04T11:16:20.503Z,38.50
2018-08-04T11:18:48.031Z,37.80
2018-08-04T11:21:16.550Z,37.60
2018-08-04T11:23:44.120Z,37.70
2018-08-04T11:26:12.383Z,37.30
2018-08-04T11:28:41.068Z,36.50
2018-08-04T11:31:09.130Z,36.70
2018-08-04T11:33:36.884Z,37.10
2018-08-04T11:36:05.838Z,35.90
2018-08-04T11:38:33.352Z,36.40
2018-08-04T11:41:01.379Z,35.80
2018-08-04T11:43:29.364Z,36.30
2018-08-04T11:45:57.447Z,36.40
2018-08-04T11:48:25.334Z,35.60
2018-08-04T11:50:53.751Z,35.90
2018-08-04T11:53:21.745Z,36.30
2018-08-04T11:55:49.252Z,35.70
2018-08-04T11:58:17.403Z,35.30
2018-08-04T12:00:45.364Z,35.50
2018-08-04T12:03:13.335Z,34.00
2018-08-04T12:05:40.877Z,34.20
2018-08-04T12:08:08.515Z,32.60
2018-08-04T12:10:36.091Z,33.70
2018-08-04T12:13:04.180Z,33.80
2018-08-04T12:15:32.103Z,34.30
2018-08-04T12:17:59.630Z,33.60
2018-08-04T12:20:27.615Z,32.90
2018-08-04T12:25:23.494Z,33.40
2018-08-04T12:27:51.380Z,33.70
2018-08-04T12:30:18.879Z,33.00
2018-08-04T12:32:46.380Z,35.10
2018-08-04T12:35:14.340Z,33.20
2018-08-04T12:40:09.297Z,34.20
2018-08-04T12:42:38.356Z,33.50
2018-08-04T12:47:33.716Z,32.70
2018-08-04T12:50:01.766Z,32.40
2018-08-04T12:52:29.655Z,32.90
2018-08-04T12:54:57.562Z,32.70
2018-08-04T12:57:25.542Z,32.90
2018-08-04T12:59:53.144Z,32.90
2018-08-04T13:02:20.647Z,32.50
2018-08-04T13:04:48.199Z,31.90
2018-08-04T13:07:15.736Z,31.80
2018-08-04T13:09:43.447Z,31.30
2018-08-04T13:12:11.000Z,31.90
2018-08-04T13:14:38.950Z,31.50
2018-08-04T13:19:34.319Z,31.30
2018-08-04T13:22:02.252Z,30.30
2018-08-04T13:24:30.224Z,30.00
2018-08-04T13:26:57.743Z,30.30
2018-08-04T13:29:25.304Z,29.40
2018-08-04T13:31:52.838Z,30.30
2018-08-04T13:34:21.504Z,30.60
2018-08-04T13:36:49.021Z,30.20
2018-08-04T13:39:16.541Z,29.80
2018-08-04T13:41:44.535Z,29.80
2018-08-04T13:44:12.364Z,29.00
2018-08-04T13:46:40.340Z,28.90
2018-08-04T13:49:09.036Z,29.30
2018-08-04T13:51:36.807Z,29.30
2018-08-04T13:54:05.508Z,28.60
2018-08-04T13:56:33.004Z,29.20
2018-08-04T13:59:00.529Z,29.40
2018-08-04T14:01:28.161Z,28.60
2018-08-04T14:03:56.046Z,29.10
2018-08-04T14:06:23.565Z,28.60
2018-08-04T14:08:51.493Z,28.00
2018-08-04T14:11:19.309Z,28.80
2018-08-04T14:13:48.732Z,28.10
2018-08-04T14:16:17.249Z,27.00
2018-08-04T14:18:45.774Z,27.00
2018-08-04T14:21:14.426Z,26.40
2018-08-04T14:23:43.774Z,26.40
2018-08-04T14:26:12.052Z,27.70
2018-08-04T14:28:40.283Z,26.30
2018-08-04T14:31:08.238Z,25.20
2018-08-04T14:33:35.781Z,24.30
2018-08-04T14:36:04.988Z,24.60
2018-08-04T14:38:32.596Z,25.80
2018-08-04T14:41:00.682Z,24.70
2018-08-04T14:43:28.692Z,23.80
2018-08-04T14:45:56.876Z,24.10
2018-08-04T14:48:24.527Z,23.40
2018-08-04T14:50:53.111Z,23.10
2018-08-04T14:53:21.412Z,23.20
2018-08-04T14:55:49.058Z,23.60
2018-08-04T14:58:16.813Z,23.20
2018-08-04T15:00:44.518Z,23.20
2018-08-04T15:03:12.040Z,23.50
2018-08-04T15:05:39.636Z,22.80
2018-08-04T15:08:07.489Z,23.10
2018-08-04T15:10:35.602Z,23.20
2018-08-04T15:13:03.196Z,23.00
2018-08-04T15:15:31.092Z,23.50
2018-08-04T15:20:26.919Z,23.10
2018-08-04T15:25:23.132Z,23.00
2018-08-04T15:27:50.707Z,21.60
2018-08-04T15:30:18.228Z,21.80
2018-08-04T15:32:45.776Z,20.90
2018-08-04T15:35:13.589Z,21.10
2018-08-04T15:37:41.185Z,21.60
2018-08-04T15:40:09.291Z,22.00
2018-08-04T15:42:37.460Z,21.70
2018-08-04T15:45:05.511Z,22.20
2018-08-04T15:47:33.665Z,21.90
2018-08-04T15:50:01.510Z,22.10
2018-08-04T15:52:29.063Z,22.60
2018-08-04T15:54:56.578Z,22.50
2018-08-04T15:57:24.128Z,22.70
2018-08-04T15:59:51.648Z,22.50
2018-08-04T16:02:19.545Z,22.40
2018-08-04T16:04:47.067Z,23.00
2018-08-04T16:09:42.122Z,22.90
2018-08-04T16:12:09.740Z,24.10
2018-08-04T16:14:38.053Z,25.10
2018-08-04T16:17:06.535Z,25.40
2018-08-04T16:19:34.399Z,26.20
2018-08-04T16:22:02.338Z,26.80
2018-08-04T16:24:29.865Z,28.10
2018-08-04T16:26:57.419Z,28.70
2018-08-04T16:29:25.583Z,29.10
2018-08-04T16:31:53.601Z,29.10
2018-08-04T16:34:21.747Z,29.50
2018-08-04T16:39:17.124Z,30.50
2018-08-04T16:41:45.122Z,30.40
2018-08-04T16:44:13.155Z,30.70
2018-08-04T16:46:41.212Z,31.30
2018-08-04T16:49:09.799Z,32.00
2018-08-04T16:51:37.343Z,31.90
2018-08-04T16:54:05.068Z,31.80
2018-08-04T16:56:32.583Z,32.10
2018-08-04T16:59:00.093Z,32.90
2018-08-04T17:01:27.700Z,34.70
2018-08-04T17:03:55.454Z,35.60
2018-08-04T17:06:23.029Z,38.20
2018-08-04T17:08:50.596Z,38.90
2018-08-04T17:11:18.505Z,38.60
2018-08-04T17:13:46.420Z,40.70
2018-08-04T17:16:14.471Z,39.70
2018-08-04T17:18:42.604Z,40.90
2018-08-04T17:21:10.511Z,42.30
2018-08-04T17:23:38.396Z,42.70
2018-08-04T17:26:06.408Z,43.00
2018-08-04T17:28:33.924Z,42.80
2018-08-04T17:31:02.226Z,43.10
2018-08-04T17:33:29.789Z,44.00
2018-08-04T17:35:58.136Z,43.90
2018-08-04T17:38:26.031Z,43.90
2018-08-04T17:40:53.852Z,43.60
2018-08-04T17:45:50.119Z,44.50
2018-08-04T17:50:45.143Z,45.30
2018-08-04T17:53:12.655Z,45.60
2018-08-04T17:55:40.172Z,45.60
2018-08-04T17:58:07.881Z,45.40
2018-08-04T18:00:36.207Z,45.70
2018-08-04T18:05:31.298Z,46.40
2018-08-04T18:07:59.310Z,46.50
2018-08-04T18:12:54.596Z,47.20
2018-08-04T18:15:23.215Z,46.70
2018-08-04T18:17:50.772Z,48.10
2018-08-04T18:20:18.880Z,47.00
2018-08-04T18:22:47.471Z,47.40
2018-08-04T18:25:14.980Z,48.40
2018-08-04T18:27:42.511Z,48.00
2018-08-04T18:30:10.711Z,49.90
2018-08-04T18:32:38.788Z,48.60
2018-08-04T18:35:06.675Z,50.30
2018-08-04T18:37:34.700Z,49.70
2018-08-04T18:40:02.666Z,50.00
2018-08-04T18:47:25.851Z,51.20
2018-08-04T18:49:54.057Z,51.50
2018-08-04T18:52:21.623Z,51.70
2018-08-04T18:54:49.238Z,51.20
2018-08-04T18:57:16.829Z,52.50
2018-08-04T18:59:44.546Z,52.20
2018-08-04T19:02:12.159Z,52.80
2018-08-04T19:04:40.452Z,55.60
2018-08-04T19:07:08.649Z,54.70
2018-08-04T19:09:36.437Z,55.30
2018-08-04T19:12:04.132Z,54.10
2018-08-04T19:14:32.140Z,54.40
2018-08-04T19:17:00.980Z,54.60
2018-08-04T19:19:28.487Z,55.20
2018-08-04T19:21:56.903Z,54.90
2018-08-04T19:24:24.717Z,54.90
2018-08-04T19:26:52.358Z,56.10
2018-08-04T19:29:20.061Z,55.90
2018-08-04T19:31:49.186Z,56.10
2018-08-04T19:34:17.713Z,56.60
2018-08-04T19:36:45.378Z,57.60
2018-08-04T19:39:13.740Z,57.40
2018-08-04T19:41:41.900Z,59.20
2018-08-04T19:44:11.116Z,58.20
2018-08-04T19:46:39.514Z,58.80
2018-08-04T19:49:07.466Z,59.60
2018-08-04T19:51:35.151Z,58.80
2018-08-04T19:54:02.989Z,61.70
2018-08-04T19:56:31.130Z,59.40
2018-08-04T19:58:59.391Z,62.50
2018-08-04T20:01:27.473Z,60.50
2018-08-04T20:03:56.371Z,60.10
2018-08-04T20:06:24.260Z,60.10
2018-08-04T20:08:52.796Z,62.10
2018-08-04T20:16:18.964Z,66.10
2018-08-04T20:21:17.010Z,62.60
2018-08-04T20:23:45.297Z,62.80
2018-08-04T20:26:13.534Z,63.20
2018-08-04T20:28:41.526Z,62.10
2018-08-04T20:31:09.588Z,62.60
2018-08-04T20:33:37.196Z,62.40
2018-08-04T20:36:05.549Z,62.00
2018-08-04T20:38:34.086Z,62.80
2018-08-04T20:41:02.892Z,62.60
2018-08-04T20:43:31.160Z,63.70
2018-08-04T20:45:58.887Z,63.50
2018-08-04T20:48:26.844Z,63.70
2018-08-04T20:50:54.339Z,64.00
2018-08-04T20:53:22.451Z,63.50
2018-08-04T21:03:18.759Z,66.00
2018-08-04T21:05:46.299Z,66.90
2018-08-04T21:08:14.031Z,67.10
2018-08-04T21:10:41.601Z,66.40
2018-08-04T21:13:09.719Z,67.00
2018-08-04T21:18:05.263Z,68.00
2018-08-04T21:20:34.564Z,67.20
2018-08-04T21:23:03.037Z,67.70
2018-08-04T21:25:30.551Z,68.10
2018-08-04T21:27:58.603Z,68.00
2018-08-04T21:30:26.121Z,68.30
2018-08-04T21:32:53.928Z,67.60
2018-08-04T21:35:21.827Z,67.70
2018-08-04T21:37:50.276Z,67.80
2018-08-04T21:42:45.708Z,68.20
2018-08-04T21:45:13.936Z,68.80
2018-08-04T21:47:41.603Z,68.90
2018-08-04T21:50:09.131Z,69.40
2018-08-04T21:52:37.199Z,69.60
2018-08-04T21:57:32.183Z,72.50
2018-08-04T22:00:00.204Z,70.70
2018-08-04T22:02:27.809Z,69.90
2018-08-04T22:04:56.029Z,69.70
2018-08-04T22:07:45.156Z,70.20
2018-08-04T22:10:13.417Z,69.80
2018-08-04T22:12:41.703Z,70.40
2018-08-04T22:15:10.967Z,70.90
2018-08-04T22:17:38.559Z,72.50
2018-08-04T22:20:08.183Z,74.00
2018-08-04T22:22:36.519Z,73.80
2018-08-04T22:25:06.774Z,73.30
2018-08-04T22:27:34.316Z,72.20
2018-08-04T22:30:01.918Z,72.20
2018-08-04T22:32:30.159Z,73.00
2018-08-04T22:34:58.735Z,73.80
2018-08-04T22:37:26.260Z,74.50
2018-08-04T22:39:54.335Z,74.20
2018-08-04T22:42:22.473Z,74.10
2018-08-04T22:46:18.853Z,75.90
2018-08-04T22:51:31.919Z,75.50
2018-08-04T22:53:59.971Z,75.00
2018-08-04T22:56:27.474Z,75.50
2018-08-04T22:58:55.355Z,75.40
2018-08-04T23:01:22.927Z,75.20
2018-08-04T23:03:50.453Z,75.20
2018-08-04T23:06:18.000Z,77.00
2018-08-04T23:08:45.487Z,77.40
2018-08-04T23:11:13.058Z,79.30
2018-08-04T23:13:40.988Z,78.40
2018-08-04T23:21:03.892Z,76.50
2018-08-04T23:23:31.795Z,77.50
2018-08-04T23:25:59.301Z,76.20
2018-08-04T23:28:27.691Z,76.30
2018-08-04T23:30:55.246Z,76.80
2018-08-04T23:33:23.559Z,76.60
2018-08-04T23:35:51.835Z,76.30
2018-08-04T23:38:19.343Z,76.50
2018-08-04T23:40:46.879Z,79.00
2018-08-04T23:43:14.973Z,77.40
2018-08-04T23:45:43.181Z,77.90
2018-08-04T23:48:10.765Z,78.10
2018-08-04T23:50:39.608Z,79.40
2018-08-04T23:53:07.855Z,79.80
2018-08-04T23:55:35.847Z,78.50
2018-08-04T23:58:03.359Z,79.80
